Mao, Dominican Republic
Current Conditions -  °F | °C
As of 3:00 AM on Saturday 29 Nov 2014 (Local Time) from MDST Reporting Station
Few Clouds Few Clouds  
Wind Chill: 68°   Ceiling: Unl
Heat Index: 68°   Visibility: 6mi
Dew Point: 68°   Wind: 0mph
Humidity: 100%   Direction: NA
Pressure: 29.91"   Gusts: NA
Location:  19.56°N, 71.08°W
Report Text: MDST 290700Z 00000KT 9999 FEW016 20/20 Q1013
Loading
Personal Weather Stations






























Interactive Weather Map New forecast layout! Learn more

10-Day Weather Forecast

Advertisements
Track Severe Weather on mobile